Time;durP1;ratioP1;P1;durP2;ratioP2;P2;SDS_P1;SDS_P2;PMS_P1;PMS_P2;Temp;Humidity;BMP_temperature;BMP_pressure;BME280_temperature;BME280_humidity;BME280_pressure;Samples;Min_cycle;Max_cycle;Signal;HPM_P1;HPM_P2
2021/03/08 00:01:38;;;;;;;11.25;8.50;;;;;;;;;;5090558;28;20246;-75
2021/03/08 00:04:04;;;;;;;15.35;9.20;;;;;;;;;;5090465;28;20219;-75
2021/03/08 00:06:31;;;;;;;16.17;9.55;;;;;;;;;;5090762;28;20217;-76
2021/03/08 00:08:58;;;;;;;14.23;7.43;;;;;;;;;;5091762;28;20227;-76
2021/03/08 00:11:25;;;;;;;10.65;7.70;;;;;;;;;;5092254;28;20695;-75
2021/03/08 00:13:52;;;;;;;10.35;7.38;;;;;;;;;;5092376;28;20228;-75
2021/03/08 00:16:20;;;;;;;12.55;7.05;;;;;;;;;;5092697;28;20254;-76
2021/03/08 00:18:47;;;;;;;11.48;7.88;;;;;;;;;;5089892;28;20280;-75
2021/03/08 00:21:14;;;;;;;11.25;7.90;;;;;;;;;;5087867;28;20647;-75
2021/03/08 00:23:40;;;;;;;9.13;6.93;;;;;;;;;;5089655;28;20274;-75
2021/03/08 00:26:07;;;;;;;13.02;8.02;;;;;;;;;;5089940;28;20212;-75
2021/03/08 00:28:34;;;;;;;8.32;7.03;;;;;;;;;;5090244;28;20555;-76
2021/03/08 00:31:01;;;;;;;8.60;7.28;;;;;;;;;;5090544;28;20769;-75
2021/03/08 00:33:29;;;;;;;10.48;6.80;;;;;;;;;;5091972;28;20617;-75
2021/03/08 00:35:56;;;;;;;10.45;8.07;;;;;;;;;;5091858;28;20293;-76
2021/03/08 00:38:23;;;;;;;10.50;7.13;;;;;;;;;;5092026;28;20409;-76
2021/03/08 00:40:51;;;;;;;8.23;6.93;;;;;;;;;;5089970;28;20208;-75
2021/03/08 00:43:18;;;;;;;9.25;6.53;;;;;;;;;;5090803;28;20223;-76
2021/03/08 00:45:45;;;;;;;11.38;6.55;;;;;;;;;;5092267;28;20342;-76
2021/03/08 00:48:12;;;;;;;8.27;6.88;;;;;;;;;;5093815;28;20296;-75
2021/03/08 00:50:40;;;;;;;12.43;7.70;;;;;;;;;;5093722;28;20226;-76
2021/03/08 00:53:06;;;;;;;18.05;8.27;;;;;;;;;;5094388;28;20231;-76
2021/03/08 00:55:33;;;;;;;12.48;7.60;;;;;;;;;;5096001;28;20291;-76
2021/03/08 00:58:00;;;;;;;10.77;7.40;;;;;;;;;;5095979;28;20234;-76
2021/03/08 01:00:28;;;;;;;11.15;7.85;;;;;;;;;;5095474;28;20350;-76
2021/03/08 01:02:56;;;;;;;12.80;8.50;;;;;;;;;;5093947;28;20204;-76
2021/03/08 01:05:23;;;;;;;10.35;7.72;;;;;;;;;;5091598;28;20585;-76
2021/03/08 01:07:51;;;;;;;11.02;7.32;;;;;;;;;;5091333;28;20206;-76
2021/03/08 01:10:19;;;;;;;12.50;7.32;;;;;;;;;;5091890;28;20313;-75
2021/03/08 01:12:45;;;;;;;8.40;7.43;;;;;;;;;;5092173;28;20290;-75
2021/03/08 01:15:13;;;;;;;15.32;8.20;;;;;;;;;;5093633;28;20294;-75
2021/03/08 01:17:40;;;;;;;10.18;8.60;;;;;;;;;;5095080;28;20209;-76
2021/03/08 01:20:09;;;;;;;11.73;7.78;;;;;;;;;;5094137;28;20195;-75
2021/03/08 01:22:35;;;;;;;12.10;7.50;;;;;;;;;;5095546;28;20552;-76
2021/03/08 01:25:04;;;;;;;11.43;7.72;;;;;;;;;;5094072;28;20217;-75
2021/03/08 01:27:30;;;;;;;10.43;7.97;;;;;;;;;;5090027;28;20723;-76
2021/03/08 01:29:57;;;;;;;15.48;7.10;;;;;;;;;;5091071;28;20198;-75
2021/03/08 01:32:24;;;;;;;11.82;8.45;;;;;;;;;;5093224;28;20318;-76
2021/03/08 01:34:51;;;;;;;10.07;7.60;;;;;;;;;;5093111;28;20211;-76
2021/03/08 01:37:17;;;;;;;13.55;8.38;;;;;;;;;;5093438;28;20233;-75
2021/03/08 01:39:44;;;;;;;9.95;7.70;;;;;;;;;;5094038;28;20207;-75
2021/03/08 01:42:12;;;;;;;12.80;8.07;;;;;;;;;;5095043;28;20202;-76
2021/03/08 01:44:39;;;;;;;12.55;9.15;;;;;;;;;;5095334;28;20243;-76
2021/03/08 01:47:06;;;;;;;9.65;8.20;;;;;;;;;;5095130;28;20233;-76
2021/03/08 01:49:32;;;;;;;13.60;8.35;;;;;;;;;;5091995;28;20185;-76
2021/03/08 01:51:59;;;;;;;12.63;8.98;;;;;;;;;;5090461;28;20219;-75
2021/03/08 01:54:26;;;;;;;13.73;8.45;;;;;;;;;;5091095;28;20300;-75
2021/03/08 01:56:53;;;;;;;13.43;8.30;;;;;;;;;;5092504;28;20662;-75
2021/03/08 01:59:21;;;;;;;10.25;7.45;;;;;;;;;;5091267;28;20193;-76
2021/03/08 02:01:48;;;;;;;10.05;8.40;;;;;;;;;;5093570;28;20207;-76
2021/03/08 02:04:15;;;;;;;11.38;8.65;;;;;;;;;;5094685;28;20228;-76
2021/03/08 02:06:42;;;;;;;10.20;7.68;;;;;;;;;;5094620;28;20247;-76
2021/03/08 02:09:09;;;;;;;11.02;8.00;;;;;;;;;;5093946;28;20222;-76
2021/03/08 02:11:38;;;;;;;12.13;8.70;;;;;;;;;;5092874;28;20201;-76
2021/03/08 02:14:15;;;;;;;9.82;8.00;;;;;;;;;;5090000;28;20229;-76
2021/03/08 02:16:46;;;;;;;12.70;8.95;;;;;;;;;;5091748;28;20295;-75
2021/03/08 02:19:20;;;;;;;12.20;8.77;;;;;;;;;;5091676;28;20276;-75
2021/03/08 02:22:02;;;;;;;12.98;9.25;;;;;;;;;;5090780;28;20725;-76
2021/03/08 02:24:43;;;;;;;14.70;10.02;;;;;;;;;;5092968;28;20235;-75
2021/03/08 02:27:20;;;;;;;14.07;9.80;;;;;;;;;;5093977;28;20204;-76
2021/03/08 02:29:58;;;;;;;12.70;9.90;;;;;;;;;;5093945;28;20204;-75
2021/03/08 02:32:27;;;;;;;20.00;10.95;;;;;;;;;;5093964;28;20740;-76
2021/03/08 02:34:59;;;;;;;16.88;10.40;;;;;;;;;;5090425;28;20226;-76
2021/03/08 02:37:28;;;;;;;12.45;9.45;;;;;;;;;;5090163;28;20205;-75
2021/03/08 02:39:58;;;;;;;16.80;10.38;;;;;;;;;;5091172;28;20201;-75
2021/03/08 02:42:29;;;;;;;16.83;10.55;;;;;;;;;;5091206;28;20273;-75
2021/03/08 02:44:57;;;;;;;21.52;10.60;;;;;;;;;;5091750;28;20237;-75
2021/03/08 02:47:24;;;;;;;14.20;9.57;;;;;;;;;;5092862;28;20256;-75
2021/03/08 02:49:55;;;;;;;14.27;10.90;;;;;;;;;;5093693;28;20552;-75
2021/03/08 02:52:22;;;;;;;17.55;9.85;;;;;;;;;;5093787;28;20229;-75
2021/03/08 02:54:51;;;;;;;14.80;11.00;;;;;;;;;;5093706;28;20243;-75
2021/03/08 02:57:20;;;;;;;20.42;10.88;;;;;;;;;;5091301;28;20199;-75
2021/03/08 02:59:48;;;;;;;14.43;10.05;;;;;;;;;;5087586;28;20590;-75
2021/03/08 03:02:16;;;;;;;16.27;9.30;;;;;;;;;;5070955;28;20734;-75
2021/03/08 03:04:44;;;;;;;15.85;10.93;;;;;;;;;;5071211;28;20224;-76
2021/03/08 03:07:12;;;;;;;15.75;10.00;;;;;;;;;;5073492;28;20669;-75
2021/03/08 03:09:40;;;;;;;19.13;11.70;;;;;;;;;;5092054;28;20228;-75
2021/03/08 03:12:07;;;;;;;14.95;10.23;;;;;;;;;;5092031;28;20308;-75
2021/03/08 03:14:35;;;;;;;14.85;9.75;;;;;;;;;;5093506;28;20210;-75
2021/03/08 03:17:04;;;;;;;15.55;10.73;;;;;;;;;;5093010;28;20257;-75
2021/03/08 03:19:32;;;;;;;17.20;11.15;;;;;;;;;;5091688;28;20677;-76
2021/03/08 03:22:00;;;;;;;18.67;11.95;;;;;;;;;;5088968;28;20197;-75
2021/03/08 03:24:29;;;;;;;22.08;10.25;;;;;;;;;;5090016;28;20224;-74
2021/03/08 03:26:56;;;;;;;16.10;10.55;;;;;;;;;;5090523;28;20288;-75
2021/03/08 03:29:24;;;;;;;14.10;10.75;;;;;;;;;;5091033;28;20204;-75
2021/03/08 03:31:51;;;;;;;14.73;10.90;;;;;;;;;;5091184;28;20221;-74
2021/03/08 03:34:19;;;;;;;18.40;11.60;;;;;;;;;;5092943;28;20222;-75
2021/03/08 03:36:47;;;;;;;20.30;11.65;;;;;;;;;;5092798;28;20228;-75
2021/03/08 03:39:14;;;;;;;21.08;11.60;;;;;;;;;;5091565;28;20607;-74
2021/03/08 03:41:42;;;;;;;17.10;11.00;;;;;;;;;;5092719;28;20212;-75
2021/03/08 03:44:10;;;;;;;19.88;11.57;;;;;;;;;;5086988;28;20294;-76
2021/03/08 03:46:37;;;;;;;18.52;12.10;;;;;;;;;;5088130;28;20193;-75
2021/03/08 03:49:04;;;;;;;15.55;11.43;;;;;;;;;;5089336;28;20203;-75
2021/03/08 03:51:31;;;;;;;17.85;11.85;;;;;;;;;;5090386;28;20198;-75
2021/03/08 03:53:58;;;;;;;22.15;12.02;;;;;;;;;;5090687;28;20731;-75
2021/03/08 03:56:27;;;;;;;22.98;13.15;;;;;;;;;;5092111;28;20228;-75
2021/03/08 03:58:56;;;;;;;20.52;11.52;;;;;;;;;;5092369;28;20311;-74
2021/03/08 04:01:25;;;;;;;18.23;11.55;;;;;;;;;;5092561;28;20292;-75
2021/03/08 04:03:56;;;;;;;17.08;11.35;;;;;;;;;;5091216;28;20232;-74
2021/03/08 04:06:24;;;;;;;19.50;12.52;;;;;;;;;;5088129;28;20201;-75
2021/03/08 04:08:53;;;;;;;18.23;11.55;;;;;;;;;;5088235;28;20202;-75
2021/03/08 04:11:21;;;;;;;21.30;13.65;;;;;;;;;;5090307;28;20211;-75
2021/03/08 04:13:48;;;;;;;17.73;11.45;;;;;;;;;;5088926;28;20227;-75
2021/03/08 04:16:17;;;;;;;17.48;11.18;;;;;;;;;;5090090;28;20216;-75
2021/03/08 04:18:45;;;;;;;16.73;11.65;;;;;;;;;;5091545;28;20189;-75
2021/03/08 04:21:13;;;;;;;15.18;10.93;;;;;;;;;;5092425;28;20212;-76
2021/03/08 04:23:40;;;;;;;15.32;10.68;;;;;;;;;;5092359;28;20304;-75
2021/03/08 04:26:10;;;;;;;16.77;12.45;;;;;;;;;;5092115;28;20222;-75
2021/03/08 04:28:37;;;;;;;19.38;11.82;;;;;;;;;;5089070;28;20262;-75
2021/03/08 04:31:05;;;;;;;18.85;11.57;;;;;;;;;;5088012;28;20200;-75
2021/03/08 04:33:33;;;;;;;17.80;11.00;;;;;;;;;;5089903;28;20772;-75
2021/03/08 04:36:00;;;;;;;19.92;12.20;;;;;;;;;;5089963;28;20198;-74
2021/03/08 04:38:28;;;;;;;22.52;14.25;;;;;;;;;;5089102;28;20198;-75
2021/03/08 04:40:55;;;;;;;16.98;12.60;;;;;;;;;;5091169;28;20680;-76
2021/03/08 04:43:23;;;;;;;19.85;12.77;;;;;;;;;;5092130;28;20236;-75
2021/03/08 04:45:50;;;;;;;18.77;12.45;;;;;;;;;;5092105;28;20197;-75
2021/03/08 04:48:17;;;;;;;19.35;11.80;;;;;;;;;;5091948;28;20280;-76
2021/03/08 04:50:45;;;;;;;25.27;14.20;;;;;;;;;;5090064;28;20205;-76
2021/03/08 04:53:12;;;;;;;20.27;11.93;;;;;;;;;;5087759;28;20647;-75
2021/03/08 04:55:39;;;;;;;20.75;13.13;;;;;;;;;;5089607;28;20296;-75
2021/03/08 04:58:06;;;;;;;22.35;12.95;;;;;;;;;;5089509;28;20229;-76
2021/03/08 05:00:32;;;;;;;18.48;12.50;;;;;;;;;;5089742;28;20243;-76
2021/03/08 05:03:00;;;;;;;21.17;12.48;;;;;;;;;;5090773;28;20230;-77
2021/03/08 05:05:27;;;;;;;19.65;12.73;;;;;;;;;;5092173;28;20208;-75
2021/03/08 05:07:58;;;;;;;24.00;14.98;;;;;;;;;;5091662;28;20193;-75
2021/03/08 05:10:26;;;;;;;20.98;12.13;;;;;;;;;;5090923;28;20256;-75
2021/03/08 05:12:53;;;;;;;23.30;14.40;;;;;;;;;;5089296;28;20298;-75
2021/03/08 05:15:21;;;;;;;20.65;13.40;;;;;;;;;;5087552;28;20217;-76
2021/03/08 05:17:52;;;;;;;20.58;12.68;;;;;;;;;;5088737;28;20640;-75
2021/03/08 05:20:19;;;;;;;24.88;13.82;;;;;;;;;;5089518;28;20201;-75
2021/03/08 05:22:47;;;;;;;23.48;14.82;;;;;;;;;;5089719;28;20258;-75
2021/03/08 05:25:15;;;;;;;23.20;14.73;;;;;;;;;;5089961;28;20201;-75
2021/03/08 05:27:44;;;;;;;21.65;13.90;;;;;;;;;;5090217;28;20253;-75
2021/03/08 05:30:15;;;;;;;25.33;13.95;;;;;;;;;;5095029;28;20203;-75
2021/03/08 05:32:44;;;;;;;23.10;13.95;;;;;;;;;;5094058;28;20285;-75
2021/03/08 05:35:12;;;;;;;20.65;13.40;;;;;;;;;;5094562;28;20582;-75
2021/03/08 05:37:40;;;;;;;25.38;14.40;;;;;;;;;;5090439;28;20205;-75
2021/03/08 05:40:11;;;;;;;23.23;14.45;;;;;;;;;;5082671;28;20212;-75
2021/03/08 05:42:39;;;;;;;22.73;13.57;;;;;;;;;;5085574;28;20626;-75
2021/03/08 05:45:08;;;;;;;28.50;14.13;;;;;;;;;;5092763;28;20242;-75
2021/03/08 05:47:40;;;;;;;24.25;13.77;;;;;;;;;;5092826;28;20197;-76
2021/03/08 05:50:16;;;;;;;25.05;14.45;;;;;;;;;;5094754;28;20190;-75
2021/03/08 05:53:01;;;;;;;30.13;14.20;;;;;;;;;;5095075;28;20256;-75
2021/03/08 05:55:43;;;;;;;29.90;14.63;;;;;;;;;;5094720;28;20746;-75
2021/03/08 05:58:20;;;;;;;29.52;15.52;;;;;;;;;;5093545;28;20226;-76
2021/03/08 06:00:52;;;;;;;28.30;14.63;;;;;;;;;;5089915;28;20204;-75
2021/03/08 06:03:23;;;;;;;28.42;14.30;;;;;;;;;;5091985;28;20247;-75
2021/03/08 06:06:05;;;;;;;22.55;14.32;;;;;;;;;;5092528;28;20197;-76
2021/03/08 06:08:47;;;;;;;23.17;13.27;;;;;;;;;;5092367;28;20292;-75
2021/03/08 06:11:15;;;;;;;23.70;14.13;;;;;;;;;;5092609;28;20208;-75
2021/03/08 06:13:45;;;;;;;24.05;13.77;;;;;;;;;;5093194;28;20390;-76
2021/03/08 06:16:16;;;;;;;23.73;13.40;;;;;;;;;;5094688;28;20385;-75
2021/03/08 06:18:45;;;;;;;22.63;14.02;;;;;;;;;;5094300;28;20548;-76
2021/03/08 06:21:13;;;;;;;24.05;14.55;;;;;;;;;;5092592;28;20287;-75
2021/03/08 06:23:41;;;;;;;22.92;13.25;;;;;;;;;;5089299;28;20223;-75
2021/03/08 06:26:09;;;;;;;25.17;16.35;;;;;;;;;;5091376;28;20714;-75
2021/03/08 06:28:37;;;;;;;23.90;12.85;;;;;;;;;;5090682;28;20203;-76
2021/03/08 06:31:04;;;;;;;21.60;12.25;;;;;;;;;;5091926;28;20280;-75
2021/03/08 06:33:31;;;;;;;23.30;13.25;;;;;;;;;;5092454;28;20240;-75
2021/03/08 06:35:58;;;;;;;24.65;14.48;;;;;;;;;;5094083;28;20284;-75
2021/03/08 06:38:25;;;;;;;21.65;12.63;;;;;;;;;;5092732;28;20274;-76
2021/03/08 06:40:52;;;;;;;24.50;13.20;;;;;;;;;;5093717;28;20204;-75
2021/03/08 06:43:19;;;;;;;20.63;13.27;;;;;;;;;;5093068;28;20245;-75
2021/03/08 06:45:46;;;;;;;30.58;14.23;;;;;;;;;;5089222;28;20654;-76
2021/03/08 06:48:14;;;;;;;29.33;15.60;;;;;;;;;;5090575;28;20586;-75
2021/03/08 06:50:41;;;;;;;23.42;14.65;;;;;;;;;;5091245;28;20288;-75
2021/03/08 06:53:08;;;;;;;25.88;14.60;;;;;;;;;;5091457;28;20235;-75
2021/03/08 06:55:35;;;;;;;26.10;15.75;;;;;;;;;;5092014;28;20253;-75
2021/03/08 06:58:16;;;;;;;23.48;14.50;;;;;;;;;;5093367;28;20654;-75
2021/03/08 07:00:43;;;;;;;21.70;14.63;;;;;;;;;;5092046;28;20197;-75
2021/03/08 07:03:29;;;;;;;22.17;14.80;;;;;;;;;;5093309;28;20312;-75
2021/03/08 07:05:56;;;;;;;25.45;14.20;;;;;;;;;;5092999;28;20292;-76
2021/03/08 07:08:24;;;;;;;22.42;13.27;;;;;;;;;;5088873;28;20673;-75
2021/03/08 07:10:51;;;;;;;23.10;12.88;;;;;;;;;;5088392;28;20232;-75
2021/03/08 07:13:31;;;;;;;19.42;13.18;;;;;;;;;;5090535;28;20304;-76
2021/03/08 07:16:00;;;;;;;21.88;13.95;;;;;;;;;;5090078;28;20285;-75
2021/03/08 07:18:29;;;;;;;25.00;14.20;;;;;;;;;;5089804;28;20218;-75
2021/03/08 07:21:13;;;;;;;25.33;15.40;;;;;;;;;;5089068;28;20203;-75
2021/03/08 07:23:41;;;;;;;26.95;15.52;;;;;;;;;;5088291;28;20211;-76
2021/03/08 07:26:08;;;;;;;25.45;16.70;;;;;;;;;;5089522;28;20201;-75
2021/03/08 07:28:35;;;;;;;24.27;15.70;;;;;;;;;;5090452;28;20293;-76
2021/03/08 07:31:02;;;;;;;25.27;14.25;;;;;;;;;;5091031;28;20291;-76
2021/03/08 07:33:30;;;;;;;25.90;16.02;;;;;;;;;;5091719;28;20229;-79
2021/03/08 07:35:57;;;;;;;27.35;16.33;;;;;;;;;;5092183;28;20581;-75
2021/03/08 07:38:32;;;;;;;22.27;13.82;;;;;;;;;;5092722;28;20623;-76
2021/03/08 07:41:14;;;;;;;23.75;13.88;;;;;;;;;;5091368;28;20200;-78
2021/03/08 07:43:41;;;;;;;22.40;15.00;;;;;;;;;;5089981;28;20244;-75
2021/03/08 07:46:25;;;;;;;24.80;16.20;;;;;;;;;;5088206;28;20556;-75
2021/03/08 07:48:53;;;;;;;27.50;16.83;;;;;;;;;;5088937;28;20292;-75
2021/03/08 07:51:20;;;;;;;29.75;16.83;;;;;;;;;;5089173;28;20650;-75
2021/03/08 07:53:47;;;;;;;22.40;14.65;;;;;;;;;;5090520;28;20330;-75
2021/03/08 07:56:14;;;;;;;27.55;15.85;;;;;;;;;;5086604;28;20720;-75
2021/03/08 07:58:41;;;;;;;26.98;17.42;;;;;;;;;;5092287;28;20276;-74
2021/03/08 08:01:09;;;;;;;30.42;18.42;;;;;;;;;;5091484;28;20279;-75
2021/03/08 08:03:36;;;;;;;32.15;17.92;;;;;;;;;;5091835;28;20209;-76
2021/03/08 08:06:05;;;;;;;25.42;15.45;;;;;;;;;;5091403;28;20207;-75
2021/03/08 08:08:32;;;;;;;23.77;16.33;;;;;;;;;;5088098;28;20189;-76
2021/03/08 08:11:00;;;;;;;28.65;17.83;;;;;;;;;;5089650;28;20228;-76
2021/03/08 08:13:30;;;;;;;29.35;17.80;;;;;;;;;;5090424;28;20217;-75
2021/03/08 08:15:58;;;;;;;30.15;17.90;;;;;;;;;;5089416;28;20251;-75
2021/03/08 08:18:25;;;;;;;33.92;16.75;;;;;;;;;;5089852;28;20200;-75
2021/03/08 08:20:53;;;;;;;32.58;18.98;;;;;;;;;;5092659;28;20291;-75
2021/03/08 08:23:26;;;;;;;24.67;16.42;;;;;;;;;;5125138;27;20572;-74
2021/03/08 08:25:52;;;;;;;32.53;19.05;;;;;;;;;;5092577;28;20201;-75
2021/03/08 08:28:20;;;;;;;35.30;20.40;;;;;;;;;;5091046;28;20215;-74
2021/03/08 08:30:55;;;;;;;35.03;21.25;;;;;;;;;;5087681;28;20683;-75
2021/03/08 08:33:27;;;;;;;30.80;19.80;;;;;;;;;;5088661;28;20220;-76
2021/03/08 08:36:08;;;;;;;40.72;21.02;;;;;;;;;;5090248;28;20193;-76
2021/03/08 08:38:35;;;;;;;36.47;22.02;;;;;;;;;;5088825;28;20868;-74
2021/03/08 08:41:17;;;;;;;39.47;23.00;;;;;;;;;;5090892;28;20743;-72
2021/03/08 08:43:44;;;;;;;46.42;25.10;;;;;;;;;;5090023;28;20329;-75
2021/03/08 08:46:22;;;;;;;43.25;24.92;;;;;;;;;;5087754;28;20642;-74
2021/03/08 08:49:03;;;;;;;44.45;25.77;;;;;;;;;;5089225;28;20203;-74
2021/03/08 08:51:45;;;;;;;50.45;27.60;;;;;;;;;;5089542;28;20224;-75
2021/03/08 08:54:33;;;;;;;50.40;27.45;;;;;;;;;;5089858;28;20216;-74
2021/03/08 08:57:09;;;;;;;38.42;23.67;;;;;;;;;;5090364;28;20280;-73
2021/03/08 08:59:37;;;;;;;45.17;25.35;;;;;;;;;;5092090;28;20207;-75
2021/03/08 09:02:21;;;;;;;47.13;25.83;;;;;;;;;;5091552;28;20190;-75
2021/03/08 09:04:48;;;;;;;50.20;27.25;;;;;;;;;;5094699;28;20217;-74
2021/03/08 09:07:18;;;;;;;48.75;26.85;;;;;;;;;;5094281;28;20201;-75
2021/03/08 09:09:54;;;;;;;42.75;24.50;;;;;;;;;;5091418;28;21142;-75
2021/03/08 09:12:30;;;;;;;48.13;27.67;;;;;;;;;;5092346;28;20228;-76
2021/03/08 09:14:58;;;;;;;52.65;27.65;;;;;;;;;;5093795;28;20576;-75
2021/03/08 09:17:26;;;;;;;53.15;27.85;;;;;;;;;;5093806;28;20284;-75
2021/03/08 09:20:07;;;;;;;49.70;27.88;;;;;;;;;;5093253;28;20292;-74
2021/03/08 09:22:35;;;;;;;50.15;27.05;;;;;;;;;;5094256;28;20281;-76
2021/03/08 09:25:12;;;;;;;46.50;27.58;;;;;;;;;;5096054;28;20221;-74
2021/03/08 09:27:40;;;;;;;51.40;28.10;;;;;;;;;;5095303;28;20228;-75
2021/03/08 09:30:09;;;;;;;46.58;27.75;;;;;;;;;;5094438;28;20288;-76
2021/03/08 09:32:37;;;;;;;44.85;26.30;;;;;;;;;;5090307;28;21061;-75
2021/03/08 09:35:04;;;;;;;45.08;27.05;;;;;;;;;;5092556;28;20302;-75
2021/03/08 09:37:31;;;;;;;46.53;26.92;;;;;;;;;;5093217;28;20289;-75
2021/03/08 09:39:59;;;;;;;48.45;27.48;;;;;;;;;;5090751;28;20296;-74
2021/03/08 09:42:33;;;;;;;46.80;27.30;;;;;;;;;;5089621;28;20201;-76
2021/03/08 09:45:00;;;;;;;49.17;28.08;;;;;;;;;;5095820;28;20304;-75
2021/03/08 09:47:38;;;;;;;47.13;26.48;;;;;;;;;;5095509;28;20277;-75
2021/03/08 09:50:06;;;;;;;49.28;28.77;;;;;;;;;;5093907;28;20354;-75
2021/03/08 09:52:34;;;;;;;48.45;29.20;;;;;;;;;;5087740;28;20217;-75
2021/03/08 09:55:00;;;;;;;47.65;28.25;;;;;;;;;;5091643;28;20263;-75
2021/03/08 09:57:34;;;;;;;51.90;29.90;;;;;;;;;;5093071;28;20228;-73
2021/03/08 10:00:01;;;;;;;49.65;27.10;;;;;;;;;;5093119;28;20213;-76
2021/03/08 10:02:28;;;;;;;53.60;28.77;;;;;;;;;;5093194;28;20276;-75
2021/03/08 10:04:55;;;;;;;50.17;27.60;;;;;;;;;;5094424;28;20245;-75
2021/03/08 10:07:23;;;;;;;50.60;28.65;;;;;;;;;;5094726;28;20204;-74
2021/03/08 10:09:50;;;;;;;52.60;28.27;;;;;;;;;;5093485;28;20682;-76
2021/03/08 10:12:24;;;;;;;52.20;28.50;;;;;;;;;;5094811;28;20284;-73
2021/03/08 10:15:00;;;;;;;51.47;29.45;;;;;;;;;;5088619;28;20216;-75
2021/03/08 10:17:27;;;;;;;51.55;27.73;;;;;;;;;;5090405;28;20205;-75
2021/03/08 10:19:54;;;;;;;55.80;29.13;;;;;;;;;;5092696;28;20201;-75
2021/03/08 10:22:32;;;;;;;47.97;28.42;;;;;;;;;;5091464;28;20185;-75
2021/03/08 10:25:00;;;;;;;50.88;28.27;;;;;;;;;;5092425;28;20777;-75
2021/03/08 10:27:27;;;;;;;50.25;28.95;;;;;;;;;;5093716;28;20197;-76
2021/03/08 10:29:54;;;;;;;53.85;28.27;;;;;;;;;;5093416;28;20201;-75
2021/03/08 10:32:23;;;;;;;49.55;28.80;;;;;;;;;;5092641;28;20280;-75
2021/03/08 10:34:50;;;;;;;46.65;27.98;;;;;;;;;;5094312;28;20312;-75
2021/03/08 10:37:17;;;;;;;49.88;28.10;;;;;;;;;;5091712;28;20637;-75
2021/03/08 10:39:44;;;;;;;52.47;29.60;;;;;;;;;;5088699;28;20292;-76
2021/03/08 10:42:11;;;;;;;56.03;29.25;;;;;;;;;;5091634;28;20205;-75
2021/03/08 10:44:39;;;;;;;52.45;28.58;;;;;;;;;;5091748;28;20614;-75
2021/03/08 10:47:13;;;;;;;57.72;29.67;;;;;;;;;;5092057;28;20197;-75
2021/03/08 10:49:54;;;;;;;51.97;30.00;;;;;;;;;;5091416;28;20193;-75
2021/03/08 10:52:22;;;;;;;48.42;29.45;;;;;;;;;;5093101;28;20197;-75
2021/03/08 10:54:49;;;;;;;55.30;29.40;;;;;;;;;;5093510;28;20304;-74
2021/03/08 10:57:17;;;;;;;49.45;28.08;;;;;;;;;;5093260;28;20225;-75
2021/03/08 10:59:47;;;;;;;50.53;28.00;;;;;;;;;;5090035;28;20226;-75
2021/03/08 11:02:16;;;;;;;50.15;26.92;;;;;;;;;;5089228;28;20278;-75
2021/03/08 11:04:43;;;;;;;51.00;27.30;;;;;;;;;;5091020;28;20264;-75
2021/03/08 11:07:10;;;;;;;49.92;28.00;;;;;;;;;;5091380;28;20229;-75
2021/03/08 11:09:39;;;;;;;48.50;28.05;;;;;;;;;;5091608;28;20263;-74
2021/03/08 11:12:07;;;;;;;49.03;28.23;;;;;;;;;;5092492;28;20246;-76
2021/03/08 11:14:49;;;;;;;49.50;30.05;;;;;;;;;;5090776;28;20341;-73
2021/03/08 11:17:16;;;;;;;55.30;28.77;;;;;;;;;;5091849;28;20282;-75
2021/03/08 11:19:43;;;;;;;50.20;28.70;;;;;;;;;;5090194;28;20534;-75
2021/03/08 11:22:11;;;;;;;48.93;28.20;;;;;;;;;;5089212;28;20530;-76
2021/03/08 11:24:43;;;;;;;50.85;30.48;;;;;;;;;;5090258;28;20462;-75
2021/03/08 11:27:20;;;;;;;51.63;30.10;;;;;;;;;;5089803;28;20199;-77
2021/03/08 11:30:03;;;;;;;49.73;29.30;;;;;;;;;;5070941;28;20473;-76
2021/03/08 11:32:30;;;;;;;57.50;32.47;;;;;;;;;;5080567;28;20491;-76
2021/03/08 11:34:57;;;;;;;51.97;31.23;;;;;;;;;;5092761;28;20496;-77
2021/03/08 11:37:25;;;;;;;56.00;30.73;;;;;;;;;;5092988;28;20798;-78
2021/03/08 11:39:54;;;;;;;52.70;29.67;;;;;;;;;;5090201;28;20544;-76
2021/03/08 11:42:23;;;;;;;52.20;31.20;;;;;;;;;;5091157;28;20457;-76
2021/03/08 11:44:49;;;;;;;53.13;30.00;;;;;;;;;;5083776;28;20586;-76
2021/03/08 11:47:16;;;;;;;52.30;30.10;;;;;;;;;;5088734;28;20452;-76
2021/03/08 11:49:43;;;;;;;58.87;31.23;;;;;;;;;;5090212;28;20499;-77
2021/03/08 11:52:11;;;;;;;63.40;34.50;;;;;;;;;;5089115;28;20854;-76
2021/03/08 11:54:38;;;;;;;56.40;31.97;;;;;;;;;;5085108;28;20483;-76
2021/03/08 11:57:07;;;;;;;54.63;32.87;;;;;;;;;;5084513;28;20439;-75
2021/03/08 11:59:34;;;;;;;62.20;35.10;;;;;;;;;;5088852;28;20536;-76
2021/03/08 12:02:01;;;;;;;61.00;33.60;;;;;;;;;;5090383;28;20534;-75
2021/03/08 12:04:28;;;;;;;56.90;33.73;;;;;;;;;;5089430;28;20466;-75
2021/03/08 12:06:55;;;;;;;59.50;34.13;;;;;;;;;;5090004;28;20534;-76
2021/03/08 12:09:22;;;;;;;54.80;31.80;;;;;;;;;;5089788;28;20920;-74
2021/03/08 12:11:48;;;;;;;58.03;32.50;;;;;;;;;;5088161;28;20447;-75
2021/03/08 12:14:16;;;;;;;53.07;31.33;;;;;;;;;;5088964;28;20482;-75
2021/03/08 12:16:43;;;;;;;56.03;34.10;;;;;;;;;;5090127;28;20495;-75
2021/03/08 12:19:10;;;;;;;56.27;33.70;;;;;;;;;;5090164;28;20474;-75
2021/03/08 12:21:37;;;;;;;59.83;35.93;;;;;;;;;;5090140;28;20831;-76
2021/03/08 12:24:04;;;;;;;65.13;36.80;;;;;;;;;;5088218;28;20459;-75
2021/03/08 12:26:31;;;;;;;57.40;34.97;;;;;;;;;;5088819;28;20442;-77
2021/03/08 12:28:57;;;;;;;60.37;34.40;;;;;;;;;;5089662;28;20457;-77
2021/03/08 12:31:25;;;;;;;67.43;36.17;;;;;;;;;;5089364;28;20801;-76
2021/03/08 12:33:52;;;;;;;62.80;35.30;;;;;;;;;;5088895;28;20546;-76
2021/03/08 12:36:19;;;;;;;69.13;38.20;;;;;;;;;;5090941;28;20447;-77
2021/03/08 12:38:46;;;;;;;62.20;37.03;;;;;;;;;;5090112;28;20472;-77
2021/03/08 12:41:12;;;;;;;67.13;37.97;;;;;;;;;;5092372;28;20438;-76
2021/03/08 12:43:39;;;;;;;65.37;40.57;;;;;;;;;;5092154;28;20553;-75
2021/03/08 12:46:06;;;;;;;71.57;40.83;;;;;;;;;;5093760;28;20926;-77
2021/03/08 12:48:34;;;;;;;77.23;43.67;;;;;;;;;;5093100;28;20472;-76
2021/03/08 12:51:01;;;;;;;67.60;40.03;;;;;;;;;;5095164;28;20612;-76
2021/03/08 12:53:28;;;;;;;81.97;44.60;;;;;;;;;;5095066;28;20952;-75
2021/03/08 12:55:55;;;;;;;79.83;44.03;;;;;;;;;;5088529;28;20435;-75
2021/03/08 12:58:21;;;;;;;82.80;43.90;;;;;;;;;;5094844;28;20876;-76
2021/03/08 13:00:48;;;;;;;79.07;46.40;;;;;;;;;;5090933;28;20463;-76
2021/03/08 13:03:15;;;;;;;75.63;43.70;;;;;;;;;;5090809;28;20485;-74
2021/03/08 13:05:43;;;;;;;70.20;42.37;;;;;;;;;;5093844;28;20546;-74
2021/03/08 13:08:10;;;;;;;71.73;41.10;;;;;;;;;;5094785;28;20482;-74
2021/03/08 13:10:36;;;;;;;66.30;38.50;;;;;;;;;;5093310;28;20890;-73
2021/03/08 13:13:03;;;;;;;61.90;38.13;;;;;;;;;;5092411;28;20570;-74
2021/03/08 13:15:30;;;;;;;63.83;35.20;;;;;;;;;;5091589;28;21038;-73
2021/03/08 13:17:57;;;;;;;58.37;33.30;;;;;;;;;;5093361;28;20446;-73
2021/03/08 13:20:24;;;;;;;52.50;32.37;;;;;;;;;;5093685;28;20447;-74
2021/03/08 13:22:51;;;;;;;48.63;30.53;;;;;;;;;;5093685;28;20526;-74
2021/03/08 13:25:18;;;;;;;55.70;32.67;;;;;;;;;;5091514;28;20536;-73
2021/03/08 13:27:45;;;;;;;55.57;32.60;;;;;;;;;;5090235;28;20538;-73
2021/03/08 13:30:14;;;;;;;55.43;31.67;;;;;;;;;;5093560;28;20530;-75
2021/03/08 13:32:40;;;;;;;51.17;32.03;;;;;;;;;;5092400;28;20527;-73
2021/03/08 13:35:08;;;;;;;48.73;29.73;;;;;;;;;;5093548;28;20550;-73
2021/03/08 13:37:35;;;;;;;50.67;29.87;;;;;;;;;;5089932;28;20490;-73
2021/03/08 13:40:04;;;;;;;46.37;28.23;;;;;;;;;;5090946;28;20493;-72
2021/03/08 13:42:30;;;;;;;49.07;30.90;;;;;;;;;;5092908;28;20475;-75
2021/03/08 13:44:57;;;;;;;52.30;30.43;;;;;;;;;;5093421;28;20953;-72
2021/03/08 13:47:24;;;;;;;49.27;31.00;;;;;;;;;;5093573;28;20550;-75
2021/03/08 13:49:51;;;;;;;55.23;30.03;;;;;;;;;;5094471;28;20957;-75
2021/03/08 13:52:18;;;;;;;48.73;30.27;;;;;;;;;;5095401;28;20446;-73
2021/03/08 13:54:45;;;;;;;54.70;30.17;;;;;;;;;;5095272;28;20562;-73
2021/03/08 13:57:13;;;;;;;48.70;30.10;;;;;;;;;;5095300;28;20939;-73
2021/03/08 13:59:40;;;;;;;51.37;29.00;;;;;;;;;;5092083;28;20941;-72
2021/03/08 14:02:06;;;;;;;53.33;32.47;;;;;;;;;;5090193;28;20440;-75
2021/03/08 14:04:33;;;;;;;48.30;30.40;;;;;;;;;;5091921;28;20542;-75
2021/03/08 14:07:00;;;;;;;49.67;30.17;;;;;;;;;;5092384;28;20493;-75
2021/03/08 14:09:27;;;;;;;46.60;29.53;;;;;;;;;;5092849;28;20558;-74
2021/03/08 14:11:54;;;;;;;54.63;30.57;;;;;;;;;;5094117;28;20544;-75
2021/03/08 14:14:22;;;;;;;55.10;32.20;;;;;;;;;;5094729;28;20490;-75
2021/03/08 14:16:49;;;;;;;50.23;31.70;;;;;;;;;;5089035;28;20517;-75
2021/03/08 14:19:16;;;;;;;53.77;31.57;;;;;;;;;;5092456;28;20940;-73
2021/03/08 14:21:43;;;;;;;55.70;32.40;;;;;;;;;;5093548;28;20449;-74
2021/03/08 14:24:10;;;;;;;61.80;32.80;;;;;;;;;;5090074;28;20538;-74
2021/03/08 14:26:37;;;;;;;52.23;31.97;;;;;;;;;;5091067;28;20803;-75
2021/03/08 14:29:03;;;;;;;50.80;30.57;;;;;;;;;;5092266;28;20791;-77